Ithaca Tompkins Regional Airport
KITH : rendu visible

Aérodrome :











RETROUVEZ-NOUS SUR...

 
LOGIN :

S'inscrire | Disclaimer

   EN    FR    IT 

 









Légende :    VFR   VFR Marginal   IFR   IFR Intensif   IFR Très Intensif
Visi : 
Plafond : 
>= 8 km
>= 3000ft
5 à 8 km
1000 à 3000 ft
1500m à 5 km
500 à 1000 ft
800 à 1500m
200 à 500 ft
< 800m
< 200 ft
Symboles :   Orages  Brouillard  Fortes neiges  Fortes précipitations  Vent > 20 kt






- Altitude de l'aérodrome : 1099 ft
- Code IATA : ITH


KITH - Ithaca Tompkins Regional

DERNIER METAR :
  • 242156Z 16007KT 10SM CLR 08/M01 A3019 RMK AO2 SLP230 T00781011

METARs EXPIRÉS :
  • 242056Z 14009KT 10SM SCT025 09/01 A3017 RMK AO2 SLP224 T00940011 56014
  • 241956Z 17012G18KT 10SM BKN028 09/01 A3018 RMK AO2 SLP227 T00890011
  • 241945Z 17015G19KT 10SM BKN028 09/01 A3018 RMK AO2

TAF KITH
Valide du 24 à 21h jusqu'au 25 à 18h UTC


242037Z 2421/2518 15010KT P6SM BKN025 OVC100
FM250300 14010KT P6SM BKN025 OVC100 WS020/15040KT
FM251100 14014G22KT P6SM -RA OVC025 WS020/14045KT
FM251300 13012G20KT 3SM -RA BR BKN015 OVC025 WS020/14045KT
FM251600 14010G20KT 2SM -RA BR OVC009 WS020/14065KT



MET'MAP, la Météo Aéronautique d'un coup d'oeil ! - Copyright ORBIFLY Décembre 2007 - Disclaimer

ORBIFLY MET'MAP TEAM :

Programmation & Développement : Alexandra Zaïnal
Sur une idée originale de : Baudouin d'Aumeries
Assistance à la programmation : Marc-Olivier Méhu
Soutien technique & logistique : Manuel Goepfert

Contact : metmap@orbifly.com




SOURCES & CREDITS :

   NOAA       Earth
Advisory